Time;durP1;ratioP1;P1;durP2;ratioP2;P2;SDS_P1;SDS_P2;PMS_P1;PMS_P2;Temp;Humidity;BMP_temperature;BMP_pressure;BME280_temperature;BME280_humidity;BME280_pressure;Samples;Min_cycle;Max_cycle;Signal;HPM_P1;HPM_P2
2021/06/01 00:01:36;;;;;;;2.38;1.27;;;17.40;48.80;;;;;;5074985;28;20516;-81
2021/06/01 00:04:03;;;;;;;2.38;1.20;;;17.40;48.80;;;;;;5093321;28;20020;-82
2021/06/01 00:06:28;;;;;;;3.35;1.40;;;17.30;49.00;;;;;;5074961;28;20032;-82
2021/06/01 00:08:55;;;;;;;2.17;1.33;;;17.30;49.20;;;;;;5111019;28;20094;-82
2021/06/01 00:11:21;;;;;;;4.32;1.77;;;17.20;49.30;;;;;;5113400;28;20424;-82
2021/06/01 00:13:47;;;;;;;6.72;1.90;;;17.20;49.40;;;;;;5098760;28;20095;-77
2021/06/01 00:16:13;;;;;;;3.78;1.90;;;17.20;49.60;;;;;;5074422;28;20115;-77
2021/06/01 00:18:41;;;;;;;7.18;1.98;;;17.10;50.10;;;;;;5104154;28;20468;-77
2021/06/01 00:21:07;;;;;;;7.85;2.72;;;17.10;50.30;;;;;;5105883;28;20035;-77
2021/06/01 00:23:37;;;;;;;4.53;1.85;;;17.10;50.30;;;;;;5093482;28;20035;-77
2021/06/01 00:26:05;;;;;;;11.02;2.40;;;17.00;50.20;;;;;;5084456;28;20028;-77
2021/06/01 00:28:31;;;;;;;3.75;1.70;;;17.00;50.30;;;;;;5108421;28;20530;-76
2021/06/01 00:30:56;;;;;;;2.30;1.55;;;16.90;50.50;;;;;;5081412;28;20027;-77
2021/06/01 00:33:22;;;;;;;4.82;2.28;;;16.90;50.80;;;;;;5094355;28;20027;-77
2021/06/01 00:35:48;;;;;;;3.08;1.67;;;16.80;50.80;;;;;;5110675;28;20035;-77
2021/06/01 00:38:14;;;;;;;5.78;2.20;;;16.80;51.00;;;;;;5073496;28;20035;-77
2021/06/01 00:40:39;;;;;;;4.00;1.95;;;16.80;51.20;;;;;;5089499;28;20028;-77
2021/06/01 00:43:05;;;;;;;3.42;1.90;;;16.80;51.30;;;;;;5079659;28;20533;-76
2021/06/01 00:45:31;;;;;;;4.90;1.52;;;16.80;51.50;;;;;;5047164;28;20028;-77
2021/06/01 00:47:56;;;;;;;6.28;2.20;;;16.90;51.60;;;;;;5076735;28;20035;-77
2021/06/01 00:50:24;;;;;;;2.95;1.92;;;16.90;51.50;;;;;;5103920;28;20116;-77
2021/06/01 00:52:51;;;;;;;4.93;2.00;;;16.90;51.70;;;;;;5088769;28;20155;-77
2021/06/01 00:55:16;;;;;;;5.15;1.95;;;16.90;51.40;;;;;;5084625;28;20085;-77
2021/06/01 00:57:43;;;;;;;5.03;2.00;;;16.80;51.70;;;;;;5079033;28;20036;-76
2021/06/01 01:00:23;;;;;;;3.42;2.00;;;16.80;51.80;;;;;;5097722;28;20028;-77
2021/06/01 01:02:49;;;;;;;4.80;1.90;;;16.80;51.90;;;;;;5114910;28;20384;-77
2021/06/01 01:05:16;;;;;;;4.78;1.90;;;16.80;52.30;;;;;;5055874;28;20028;-77
2021/06/01 01:07:57;;;;;;;2.88;1.60;;;16.80;52.80;;;;;;5083601;28;20076;-77
2021/06/01 01:10:26;;;;;;;5.70;2.38;;;16.80;52.60;;;;;;5086218;28;20024;-77
2021/06/01 01:13:01;;;;;;;6.35;2.30;;;16.80;53.00;;;;;;5096552;28;20028;-77
2021/06/01 01:15:29;;;;;;;3.38;2.00;;;16.70;52.80;;;;;;5107929;28;20043;-77
2021/06/01 01:18:01;;;;;;;2.80;1.73;;;16.70;53.30;;;;;;5107403;28;20027;-76
2021/06/01 01:20:49;;;;;;;3.65;2.20;;;16.60;52.80;;;;;;5086549;28;20020;-76
2021/06/01 01:23:17;;;;;;;5.43;1.93;;;16.60;53.00;;;;;;5109825;28;20480;-77
2021/06/01 01:25:49;;;;;;;5.27;2.23;;;16.50;53.00;;;;;;5115703;28;20024;-76
2021/06/01 01:28:20;;;;;;;4.30;2.28;;;16.50;53.20;;;;;;5081524;28;20300;-77
2021/06/01 01:30:49;;;;;;;2.75;1.80;;;16.50;54.00;;;;;;5111164;28;20448;-77
2021/06/01 01:33:21;;;;;;;4.18;2.35;;;16.40;53.50;;;;;;5113850;28;20031;-76
2021/06/01 01:35:50;;;;;;;5.90;2.17;;;16.40;53.60;;;;;;5094860;28;20042;-76
2021/06/01 01:38:16;;;;;;;2.70;1.88;;;16.40;53.80;;;;;;5085446;28;20084;-77
2021/06/01 01:40:45;;;;;;;2.90;2.17;;;16.40;53.80;;;;;;5079847;28;20031;-77
2021/06/01 01:43:15;;;;;;;3.45;1.95;;;16.40;53.90;;;;;;5073912;28;20020;-77
2021/06/01 01:45:46;;;;;;;2.67;1.80;;;16.40;54.00;;;;;;5079519;28;20045;-77
2021/06/01 01:51:16;;;;;;;2.25;2.05;;;16.30;54.30;;;;;;5114406;28;20084;-84
2021/06/01 01:53:47;;;;;;;5.20;1.92;;;16.30;54.20;;;;;;5087878;28;20485;-84
2021/06/01 01:56:14;;;;;;;5.63;2.10;;;16.30;54.30;;;;;;5103906;28;20046;-84
2021/06/01 01:58:41;;;;;;;3.47;2.25;;;16.30;54.40;;;;;;5088079;28;20032;-82
2021/06/01 02:01:07;;;;;;;6.40;2.13;;;16.20;54.50;;;;;;5085712;28;20047;-81
2021/06/01 02:03:34;;;;;;;7.05;2.20;;;16.20;54.70;;;;;;5114727;28;20384;-81
2021/06/01 02:06:00;;;;;;;3.90;1.80;;;16.10;54.70;;;;;;5096410;28;20046;-81
2021/06/01 02:08:25;;;;;;;4.07;2.08;;;16.10;55.50;;;;;;5095134;28;20044;-81
2021/06/01 02:10:53;;;;;;;3.65;2.10;;;16.10;54.90;;;;;;5095127;28;20396;-81
2021/06/01 02:13:18;;;;;;;3.33;1.98;;;16.10;54.90;;;;;;5103932;28;20035;-82
2021/06/01 02:15:44;;;;;;;4.15;1.98;;;16.10;55.30;;;;;;5081377;28;20038;-81
2021/06/01 02:18:11;;;;;;;5.65;2.03;;;16.10;55.40;;;;;;5076618;28;20036;-81
2021/06/01 02:20:36;;;;;;;3.17;2.20;;;16.00;55.50;;;;;;5109107;28;20380;-81
2021/06/01 02:26:05;;;;;;;6.32;2.08;;;16.00;55.50;;;;;;5105227;28;20049;-85
2021/06/01 02:28:39;;;;;;;4.82;2.03;;;15.90;55.50;;;;;;5114548;28;20027;-84
2021/06/01 02:31:07;;;;;;;3.70;1.90;;;15.90;55.80;;;;;;5094129;28;20031;-83
2021/06/01 02:33:36;;;;;;;2.85;2.08;;;15.80;55.80;;;;;;5094400;28;20019;-84
2021/06/01 02:36:05;;;;;;;2.92;1.95;;;15.80;55.70;;;;;;5088003;28;20396;-84
2021/06/01 02:38:34;;;;;;;;;;;15.80;55.90;;;;;;5094758;28;20028;-76
2021/06/01 02:41:05;;;;;;;4.20;1.83;;;15.70;55.80;;;;;;5099473;28;19907;-76
2021/06/01 02:43:31;;;;;;;3.13;1.92;;;15.70;56.40;;;;;;5088223;28;20360;-76
2021/06/01 02:45:57;;;;;;;4.68;2.00;;;15.70;56.30;;;;;;5109638;28;20468;-77
2021/06/01 02:48:25;;;;;;;5.30;1.98;;;15.70;56.20;;;;;;5080874;28;20058;-81
2021/06/01 02:50:53;;;;;;;5.05;2.10;;;15.70;56.80;;;;;;5076419;28;20480;-81
2021/06/01 02:53:21;;;;;;;5.72;2.28;;;15.70;57.10;;;;;;5094062;28;20434;-81
2021/06/01 02:55:48;;;;;;;3.17;2.15;;;15.70;56.90;;;;;;5094425;28;20038;-81
2021/06/01 02:58:14;;;;;;;4.25;1.80;;;15.70;56.90;;;;;;5098050;28;20059;-81
2021/06/01 03:00:42;;;;;;;5.82;2.00;;;15.60;56.90;;;;;;5083946;28;20031;-81
2021/06/01 03:03:13;;;;;;;4.03;1.98;;;15.60;57.10;;;;;;5086724;28;20098;-81
2021/06/01 03:05:41;;;;;;;6.75;2.15;;;15.60;57.10;;;;;;5105327;28;20032;-81
2021/06/01 03:08:31;;;;;;;7.75;2.30;;;15.50;57.10;;;;;;5109277;28;20035;-81
2021/06/01 03:11:02;;;;;;;4.20;2.35;;;15.50;57.20;;;;;;5095624;28;20115;-81
2021/06/01 03:13:28;;;;;;;4.03;2.20;;;15.40;57.50;;;;;;5105598;28;20030;-81
2021/06/01 03:15:54;;;;;;;5.55;2.08;;;15.40;57.60;;;;;;5106879;28;20042;-81
2021/06/01 03:18:20;;;;;;;5.75;2.30;;;15.40;57.90;;;;;;5090044;28;20037;-81
2021/06/01 03:20:47;;;;;;;6.03;2.60;;;15.40;58.00;;;;;;5090516;28;20051;-81
2021/06/01 03:23:13;;;;;;;4.28;2.50;;;15.30;58.40;;;;;;5084511;28;20028;-81
2021/06/01 03:25:39;;;;;;;5.20;2.50;;;15.30;59.10;;;;;;5083990;28;20023;-81
2021/06/01 03:28:05;;;;;;;6.47;2.90;;;15.30;59.00;;;;;;5094916;28;20080;-81
2021/06/01 03:30:33;;;;;;;6.53;2.67;;;15.20;58.80;;;;;;5107051;28;20039;-81
2021/06/01 03:32:59;;;;;;;4.15;2.28;;;15.20;59.10;;;;;;5090394;28;20028;-82
2021/06/01 03:35:25;;;;;;;2.95;2.22;;;15.20;58.90;;;;;;5110360;28;20084;-81
2021/06/01 03:37:52;;;;;;;5.50;2.63;;;15.10;58.80;;;;;;5092325;28;20388;-81
2021/06/01 03:40:18;;;;;;;4.63;2.60;;;15.10;59.00;;;;;;5113279;28;20110;-81
2021/06/01 03:42:44;;;;;;;5.70;2.35;;;15.00;59.40;;;;;;5089780;28;20099;-84
2021/06/01 03:45:10;;;;;;;5.05;2.20;;;15.00;59.60;;;;;;5075703;28;20080;-83
2021/06/01 03:47:37;;;;;;;5.88;2.40;;;15.00;59.90;;;;;;5096332;28;20505;-84
2021/06/01 03:50:04;;;;;;;4.57;2.25;;;15.00;59.70;;;;;;5075522;28;20383;-83
2021/06/01 03:52:30;;;;;;;3.70;2.45;;;14.90;59.50;;;;;;5107960;28;20552;-84
2021/06/01 03:54:56;;;;;;;4.22;1.98;;;14.90;59.40;;;;;;5085804;28;20064;-84
2021/06/01 03:57:21;;;;;;;3.63;2.35;;;14.90;59.50;;;;;;5091851;28;20086;-84
2021/06/01 03:59:47;;;;;;;4.95;2.72;;;15.00;59.50;;;;;;5091934;28;20058;-84
2021/06/01 04:02:13;;;;;;;5.88;2.70;;;15.00;59.50;;;;;;5089997;28;20031;-83
2021/06/01 04:04:38;;;;;;;5.80;2.30;;;15.00;59.70;;;;;;5071009;28;20032;-84
2021/06/01 04:07:04;;;;;;;4.45;2.38;;;15.00;59.60;;;;;;5060714;28;20453;-84
2021/06/01 04:09:30;;;;;;;6.18;2.40;;;15.00;59.40;;;;;;5068773;28;20032;-84
2021/06/01 04:11:56;;;;;;;5.05;2.50;;;15.00;59.40;;;;;;5096644;28;20625;-83
2021/06/01 04:14:22;;;;;;;3.65;2.22;;;15.00;60.00;;;;;;5079247;28;20112;-84
2021/06/01 04:16:47;;;;;;;4.28;2.30;;;15.00;59.70;;;;;;5093758;28;20488;-84
2021/06/01 04:19:17;;;;;;;3.50;2.13;;;15.00;59.60;;;;;;5092310;28;20028;-83
2021/06/01 04:21:43;;;;;;;4.82;2.10;;;15.10;59.40;;;;;;5079654;28;20063;-83
2021/06/01 04:24:12;;;;;;;3.85;2.30;;;15.00;59.40;;;;;;5089745;28;20106;-84
2021/06/01 04:26:38;;;;;;;3.97;2.25;;;15.10;59.50;;;;;;5070068;28;20554;-84
2021/06/01 04:29:04;;;;;;;5.05;2.33;;;15.00;59.70;;;;;;5074395;28;20025;-84
2021/06/01 04:31:30;;;;;;;4.07;2.20;;;15.10;59.60;;;;;;5095018;28;20511;-83
2021/06/01 04:33:55;;;;;;;4.25;2.40;;;15.10;59.60;;;;;;5091077;28;20052;-84
2021/06/01 04:36:23;;;;;;;3.65;2.00;;;15.10;59.10;;;;;;5075252;28;20527;-84
2021/06/01 04:38:48;;;;;;;3.78;2.28;;;15.20;59.10;;;;;;5081310;28;20032;-83
2021/06/01 04:41:14;;;;;;;4.35;2.20;;;15.20;59.00;;;;;;5094024;28;22103;-84
2021/06/01 04:43:40;;;;;;;3.88;1.95;;;15.30;59.00;;;;;;5083168;28;20384;-84
2021/06/01 04:46:06;;;;;;;4.57;2.55;;;15.30;58.80;;;;;;5083092;28;20056;-84
2021/06/01 04:48:31;;;;;;;7.78;2.50;;;15.30;59.00;;;;;;5089132;28;20028;-84
2021/06/01 04:50:57;;;;;;;11.10;2.63;;;15.30;58.90;;;;;;5094925;28;20035;-81
2021/06/01 04:53:23;;;;;;;7.78;2.65;;;15.40;59.00;;;;;;5101719;28;20517;-81
2021/06/01 04:55:48;;;;;;;8.00;2.75;;;15.40;59.10;;;;;;5065606;28;20055;-81
2021/06/01 04:58:14;;;;;;;7.68;3.08;;;15.50;59.10;;;;;;5107494;28;20093;-81
2021/06/01 05:00:39;;;;;;;4.22;2.30;;;15.50;59.10;;;;;;5093742;28;20024;-83
2021/06/01 05:03:06;;;;;;;6.00;2.47;;;15.60;59.00;;;;;;5094296;28;20035;-83
2021/06/01 05:05:32;;;;;;;5.30;2.63;;;15.60;58.70;;;;;;5071962;28;20025;-83
2021/06/01 05:07:58;;;;;;;4.70;2.50;;;15.60;58.40;;;;;;5072467;28;20024;-84
2021/06/01 05:10:23;;;;;;;6.82;2.20;;;15.70;58.40;;;;;;5108431;28;20092;-84
2021/06/01 05:12:49;;;;;;;4.25;2.10;;;15.70;58.40;;;;;;5089433;28;20053;-81
2021/06/01 05:15:15;;;;;;;4.72;2.47;;;15.80;58.40;;;;;;5075533;28;20388;-81
2021/06/01 05:17:41;;;;;;;5.80;2.70;;;15.80;58.30;;;;;;5093031;28;20036;-81
2021/06/01 05:20:08;;;;;;;4.72;2.28;;;15.80;58.10;;;;;;5083832;28;20052;-81
2021/06/01 05:22:34;;;;;;;5.47;2.17;;;15.90;58.20;;;;;;5101295;28;20024;-81
2021/06/01 05:25:00;;;;;;;3.65;2.25;;;16.00;58.20;;;;;;5090552;28;20103;-81
2021/06/01 05:27:25;;;;;;;6.65;2.40;;;16.00;58.00;;;;;;5095737;28;20032;-81
2021/06/01 05:29:55;;;;;;;5.60;2.33;;;16.10;57.70;;;;;;5068655;28;20034;-81
2021/06/01 05:34:59;;;;;;;3.20;2.10;;;16.30;57.70;;;;;;5094929;28;20400;-81
2021/06/01 05:37:35;;;;;;;4.25;2.50;;;16.30;57.50;;;;;;5078866;28;20028;-81
2021/06/01 05:40:02;;;;;;;3.83;2.25;;;16.40;57.40;;;;;;5094994;28;20690;-81
2021/06/01 05:42:28;;;;;;;5.90;2.55;;;16.40;57.10;;;;;;5102787;28;20019;-81
2021/06/01 05:44:53;;;;;;;3.40;2.22;;;16.50;57.00;;;;;;5102434;28;20039;-81
2021/06/01 05:47:19;;;;;;;3.38;2.00;;;16.60;56.80;;;;;;5093763;28;20469;-81
2021/06/01 05:49:45;;;;;;;4.78;2.42;;;16.70;57.40;;;;;;5114944;28;20046;-81
2021/06/01 05:52:11;;;;;;;4.25;2.10;;;16.70;56.40;;;;;;5097642;28;20031;-81
2021/06/01 05:54:38;;;;;;;5.53;2.10;;;16.80;56.20;;;;;;5091363;28;20048;-81
2021/06/01 05:57:05;;;;;;;4.50;2.20;;;16.90;56.50;;;;;;5087443;28;20028;-81
2021/06/01 05:59:30;;;;;;;4.30;2.08;;;17.00;56.30;;;;;;5085163;28;20384;-81
2021/06/01 06:01:56;;;;;;;3.58;2.00;;;17.10;56.20;;;;;;5094768;28;20024;-81
2021/06/01 06:04:21;;;;;;;6.82;2.20;;;17.20;55.80;;;;;;5078994;28;20031;-81
2021/06/01 06:06:47;;;;;;;4.03;2.00;;;17.30;55.60;;;;;;5113412;28;20046;-81
2021/06/01 06:09:13;;;;;;;2.05;1.60;;;17.40;55.50;;;;;;5092616;28;20422;-76
2021/06/01 06:11:39;;;;;;;3.63;1.70;;;17.50;55.20;;;;;;5098371;28;20032;-77
2021/06/01 06:14:05;;;;;;;7.30;1.95;;;17.50;54.80;;;;;;5083095;28;20085;-76
2021/06/01 06:16:39;;;;;;;5.47;2.00;;;17.60;54.60;;;;;;5101586;28;20045;-77
2021/06/01 06:19:05;;;;;;;6.18;1.77;;;17.70;54.20;;;;;;5089412;28;20122;-78
2021/06/01 06:21:32;;;;;;;2.53;1.80;;;17.80;54.80;;;;;;5079239;28;20612;-78
2021/06/01 06:23:57;;;;;;;5.13;2.03;;;17.90;54.10;;;;;;5095674;28;20031;-79
2021/06/01 06:26:23;;;;;;;3.63;1.70;;;18.00;54.50;;;;;;5091570;28;20472;-79
2021/06/01 06:28:49;;;;;;;3.55;1.65;;;18.10;53.70;;;;;;5108049;28;20031;-79
2021/06/01 06:31:15;;;;;;;2.90;1.58;;;18.30;53.40;;;;;;5091538;28;20476;-79
2021/06/01 06:33:40;;;;;;;5.80;1.63;;;18.40;53.00;;;;;;5110104;28;20120;-76
2021/06/01 06:36:06;;;;;;;2.80;1.75;;;18.50;52.60;;;;;;5093472;28;20031;-76
2021/06/01 06:38:32;;;;;;;4.10;2.03;;;18.70;52.00;;;;;;5079124;28;20032;-76
2021/06/01 06:41:11;;;;;;;5.38;1.98;;;18.80;51.70;;;;;;5079667;28;20032;-76
2021/06/01 06:43:38;;;;;;;2.63;1.70;;;19.00;51.20;;;;;;5078892;28;20020;-76
2021/06/01 06:46:13;;;;;;;3.42;1.98;;;19.10;50.90;;;;;;5112213;28;20088;-77
2021/06/01 06:48:42;;;;;;;2.75;1.75;;;19.30;51.20;;;;;;5095564;28;20024;-77
2021/06/01 06:51:15;;;;;;;2.95;1.67;;;19.40;50.30;;;;;;5077563;28;20357;-77
2021/06/01 06:53:52;;;;;;;2.78;1.75;;;19.60;49.80;;;;;;5112947;28;20050;-78
2021/06/01 06:56:23;;;;;;;4.35;1.63;;;19.70;49.40;;;;;;5096976;28;20119;-78
2021/06/01 06:58:49;;;;;;;4.47;1.90;;;19.80;49.20;;;;;;5095951;28;20032;-78
2021/06/01 07:01:15;;;;;;;5.80;1.85;;;20.00;48.90;;;;;;5114783;28;20018;-77
2021/06/01 07:03:40;;;;;;;3.72;1.77;;;20.10;48.40;;;;;;5084731;28;20059;-77
2021/06/01 07:06:07;;;;;;;6.53;1.92;;;20.20;48.50;;;;;;5076725;28;20035;-77
2021/06/01 07:08:33;;;;;;;3.10;1.75;;;20.40;48.50;;;;;;5093251;28;20038;-78
2021/06/01 07:10:59;;;;;;;5.57;1.65;;;20.50;48.00;;;;;;5114231;28;20024;-78
2021/06/01 07:13:33;;;;;;;1.73;1.45;;;20.60;47.80;;;;;;5102054;28;20028;-81
2021/06/01 07:15:59;;;;;;;5.15;1.80;;;20.70;47.80;;;;;;5082120;28;20123;-81
2021/06/01 07:18:24;;;;;;;2.83;1.85;;;20.90;47.60;;;;;;5101661;28;20107;-83
2021/06/01 07:20:50;;;;;;;3.70;1.73;;;21.00;46.60;;;;;;5082608;28;20020;-81
2021/06/01 07:23:16;;;;;;;2.88;1.73;;;21.10;46.90;;;;;;5083505;28;20024;-81
2021/06/01 07:25:42;;;;;;;5.13;1.70;;;21.20;45.80;;;;;;5072039;28;20426;-82
2021/06/01 07:28:07;;;;;;;3.70;1.48;;;21.30;46.00;;;;;;5101078;28;20540;-81
2021/06/01 07:30:33;;;;;;;4.70;1.60;;;21.40;45.70;;;;;;5068455;28;20051;-82
2021/06/01 07:33:00;;;;;;;3.13;1.38;;;21.50;45.60;;;;;;5079701;28;20125;-82
2021/06/01 07:35:26;;;;;;;2.38;1.67;;;21.60;45.20;;;;;;5101430;28;20031;-81
2021/06/01 07:37:52;;;;;;;2.55;1.63;;;21.60;45.40;;;;;;5099695;28;20027;-82
2021/06/01 07:40:18;;;;;;;3.00;1.60;;;21.70;45.40;;;;;;5103666;28;20020;-81
2021/06/01 07:42:44;;;;;;;2.40;1.88;;;21.80;45.00;;;;;;5097132;28;20598;-81
2021/06/01 07:45:10;;;;;;;2.75;1.30;;;21.80;44.80;;;;;;5111869;28;20031;-81
2021/06/01 07:47:36;;;;;;;2.75;1.50;;;21.90;45.20;;;;;;5093889;28;20028;-82
2021/06/01 07:50:04;;;;;;;3.75;1.67;;;22.00;44.80;;;;;;5076959;28;20024;-83
2021/06/01 07:52:30;;;;;;;6.77;1.57;;;22.10;44.10;;;;;;5091007;28;20039;-82
2021/06/01 07:54:56;;;;;;;2.05;1.30;;;22.20;43.50;;;;;;5093078;28;20639;-83
2021/06/01 07:57:22;;;;;;;4.57;1.40;;;22.30;43.10;;;;;;5093626;28;20047;-82
2021/06/01 07:59:48;;;;;;;2.13;1.40;;;22.40;43.20;;;;;;5075528;28;20028;-82
2021/06/01 08:02:13;;;;;;;3.50;1.70;;;22.50;42.70;;;;;;5093878;28;20058;-83
2021/06/01 08:04:39;;;;;;;5.43;1.30;;;22.60;43.10;;;;;;5102307;28;20024;-83
2021/06/01 08:07:08;;;;;;;3.55;1.85;;;22.80;42.30;;;;;;5081863;28;20043;-83
2021/06/01 08:09:34;;;;;;;;;;;22.90;42.50;;;;;;5082546;28;20380;-82
2021/06/01 08:11:59;;;;;;;1.70;1.38;;;22.90;42.60;;;;;;5099162;28;19919;-83
2021/06/01 08:14:25;;;;;;;6.20;1.23;;;23.00;41.00;;;;;;5108781;28;20077;-77
2021/06/01 08:16:51;;;;;;;2.78;1.20;;;23.10;40.50;;;;;;5095418;28;20078;-81
2021/06/01 08:19:24;;;;;;;4.35;1.30;;;23.20;40.30;;;;;;5095561;28;20020;-82
2021/06/01 08:24:16;;;;;;;3.50;1.15;;;23.40;39.90;;;;;;5113410;28;20499;-82
2021/06/01 08:26:41;;;;;;;3.85;1.40;;;23.50;39.60;;;;;;5113600;28;20032;-82
2021/06/01 08:29:08;;;;;;;3.00;1.38;;;23.70;39.00;;;;;;5113588;28;20020;-82
2021/06/01 08:31:34;;;;;;;3.53;1.40;;;23.70;38.40;;;;;;5113596;28;20024;-82
2021/06/01 08:34:00;;;;;;;1.65;1.20;;;23.90;38.20;;;;;;5095279;28;20548;-82
2021/06/01 08:36:27;;;;;;;2.42;1.40;;;24.00;38.50;;;;;;5095194;28;20115;-82
2021/06/01 08:38:53;;;;;;;2.85;1.38;;;24.10;39.00;;;;;;5113246;28;20031;-81
2021/06/01 08:41:19;;;;;;;4.15;1.30;;;24.20;38.20;;;;;;5095423;28;20020;-82
2021/06/01 08:43:47;;;;;;;6.18;1.45;;;24.40;38.40;;;;;;5095343;28;20372;-82
2021/06/01 08:46:13;;;;;;;6.70;1.52;;;24.60;37.50;;;;;;5095678;28;20124;-82
2021/06/01 08:48:39;;;;;;;1.75;1.20;;;24.60;36.10;;;;;;5113310;28;20036;-83
2021/06/01 08:51:06;;;;;;;7.95;1.40;;;24.60;36.50;;;;;;5094666;28;20411;-83
2021/06/01 08:53:33;;;;;;;5.03;1.40;;;24.70;36.70;;;;;;5113069;28;20069;-81
2021/06/01 08:55:59;;;;;;;1.45;1.17;;;24.80;35.70;;;;;;5094857;28;20036;-82
2021/06/01 08:58:25;;;;;;;1.63;1.20;;;24.90;36.10;;;;;;5116593;28;20038;-82
2021/06/01 09:00:51;;;;;;;4.47;1.45;;;25.00;36.00;;;;;;5098806;28;20035;-82
2021/06/01 09:03:20;;;;;;;1.85;1.20;;;25.00;35.90;;;;;;5117000;28;20026;-82
2021/06/01 09:06:18;;;;;;;2.00;1.10;;;25.10;34.60;;;;;;5116870;28;20019;-82
2021/06/01 09:14:35;;;;;;;5.78;1.45;;;25.30;34.80;;;;;;5116712;28;20035;-78
2021/06/01 09:22:35;;;;;;;4.15;1.30;;;25.60;35.50;;;;;;5093400;28;20028;-78
2021/06/01 09:25:40;;;;;;;5.38;1.33;;;25.70;35.20;;;;;;5116247;28;20027;-79
2021/06/01 09:28:01;;;;;;;3.42;1.33;;;25.70;34.80;;;;;;5101685;28;20089;-79
2021/06/01 09:30:39;;;;;;;1.98;1.55;;;25.70;33.80;;;;;;5077708;28;20031;-80
2021/06/01 09:33:09;;;;;;;2.38;1.33;;;25.80;33.50;;;;;;5092860;28;20040;-77
2021/06/01 09:35:40;;;;;;;5.07;1.30;;;25.80;33.90;;;;;;5102540;28;20035;-79
2021/06/01 09:38:06;;;;;;;2.13;1.60;;;25.80;34.10;;;;;;5101668;28;20028;-79
2021/06/01 09:40:32;;;;;;;4.63;1.35;;;25.80;33.50;;;;;;5077813;28;20533;-81
2021/06/01 09:42:58;;;;;;;3.80;1.30;;;25.80;33.80;;;;;;5060869;28;20032;-81
2021/06/01 09:45:25;;;;;;;5.57;1.40;;;25.90;34.90;;;;;;5044329;28;20500;-80
2021/06/01 09:47:56;;;;;;;2.33;1.52;;;26.00;34.60;;;;;;5090841;28;20039;-80
2021/06/01 09:52:59;;;;;;;4.78;1.10;;;26.20;33.00;;;;;;5109821;28;20374;-80
2021/06/01 09:55:31;;;;;;;3.10;1.20;;;26.20;32.90;;;;;;5062151;28;20051;-80
2021/06/01 09:57:59;;;;;;;1.95;1.15;;;26.20;33.10;;;;;;5116077;28;20035;-80
2021/06/01 10:00:36;;;;;;;1.75;1.10;;;26.30;32.90;;;;;;5097229;28;20110;-80
2021/06/01 10:03:19;;;;;;;4.45;1.63;;;26.40;32.20;;;;;;5115345;28;20104;-80
2021/06/01 10:05:47;;;;;;;1.88;1.10;;;26.40;33.00;;;;;;5115931;28;20102;-80
2021/06/01 10:08:17;;;;;;;;;;;26.50;33.00;;;;;;5116046;28;20102;-80
2021/06/01 10:10:53;;;;;;;3.75;1.40;;;26.60;33.00;;;;;;5092873;28;19908;-80
2021/06/01 10:13:20;;;;;;;5.03;1.20;;;26.60;32.60;;;;;;5077372;28;20381;-80
2021/06/01 10:15:48;;;;;;;3.70;1.30;;;26.60;32.00;;;;;;5077829;28;20086;-80
2021/06/01 10:18:16;;;;;;;4.23;1.27;;;26.60;32.10;;;;;;5076920;28;20031;-80
2021/06/01 10:20:44;;;;;;;1.98;1.05;;;26.70;32.40;;;;;;5077753;28;20423;-81
2021/06/01 10:23:11;;;;;;;;;;;26.60;31.70;;;;;;5061100;28;20370;-80
2021/06/01 10:25:37;;;;;;;2.53;1.20;;;26.70;32.60;;;;;;5079464;28;19994;-79
2021/06/01 10:28:06;;;;;;;2.67;1.25;;;26.70;33.10;;;;;;5079793;28;20031;-81
2021/06/01 10:30:35;;;;;;;2.60;1.20;;;26.80;32.40;;;;;;5096656;28;20020;-80
2021/06/01 10:33:07;;;;;;;1.33;1.10;;;26.80;31.60;;;;;;5108620;28;20039;-82
2021/06/01 10:35:37;;;;;;;5.63;1.30;;;26.80;32.00;;;;;;5113932;28;20106;-82
2021/06/01 10:44:27;;;;;;;;;;;26.90;31.30;;;;;;5115324;28;20077;-82
2021/06/01 10:52:12;;;;;;;1.13;1.02;;;27.10;31.00;;;;;;5084005;28;20020;-78
2021/06/01 10:54:42;;;;;;;3.53;1.13;;;27.10;31.10;;;;;;5078282;28;20089;-79
2021/06/01 10:57:11;;;;;;;2.60;1.15;;;27.10;31.40;;;;;;5089192;28;20035;-79
2021/06/01 11:01:50;;;;;;;1.90;1.10;;;27.10;31.40;;;;;;5114540;28;20486;-79
2021/06/01 11:02:35;;;;;;;2.35;1.30;;;27.10;31.40;;;;;;5113284;28;20114;-81
2021/06/01 11:05:06;;;;;;;4.75;1.10;;;27.10;31.20;;;;;;5114619;28;20117;-81
2021/06/01 11:07:51;;;;;;;1.27;1.13;;;27.20;31.10;;;;;;5096143;28;20361;-80
2021/06/01 11:10:42;;;;;;;4.30;1.33;;;27.20;31.30;;;;;;5095100;28;20429;-80
2021/06/01 11:13:10;;;;;;;1.35;1.20;;;27.30;31.80;;;;;;5093891;28;20474;-80
2021/06/01 11:15:40;;;;;;;1.75;1.13;;;27.50;32.00;;;;;;5083923;28;20024;-80
2021/06/01 11:18:23;;;;;;;2.15;1.20;;;27.60;31.80;;;;;;5067106;28;20038;-80
2021/06/01 11:21:31;;;;;;;2.85;1.10;;;27.70;30.00;;;;;;5075256;28;20613;-81
2021/06/01 11:35:21;;;;;;;2.28;1.20;;;27.60;30.20;;;;;;5078555;28;20142;-82
2021/06/01 11:38:09;;;;;;;3.05;1.30;;;27.60;31.10;;;;;;5077050;28;20395;-82
2021/06/01 11:43:20;;;;;;;2.22;1.33;;;27.70;30.70;;;;;;5094046;28;20067;-82
2021/06/01 11:51:12;;;;;;;6.43;1.40;;;27.70;30.30;;;;;;5093661;28;20044;-83
2021/06/01 11:54:11;;;;;;;4.10;1.40;;;27.70;30.20;;;;;;5094058;28;20078;-82
2021/06/01 12:20:52;;;;;;;1.83;1.35;;;28.40;30.40;;;;;;5114222;28;20110;-82
2021/06/01 12:23:40;;;;;;;3.58;1.40;;;28.40;30.80;;;;;;5114331;28;20027;-82
2021/06/01 12:32:01;;;;;;;4.53;1.40;;;28.50;30.90;;;;;;5114976;28;20043;-82
2021/06/01 12:45:01;;;;;;;2.13;1.40;;;28.80;30.30;;;;;;5117703;28;20016;-84
2021/06/01 13:20:18;;;;;;;3.13;1.25;;;29.10;29.10;;;;;;5076099;28;20107;-82
2021/06/01 13:39:21;;;;;;;2.87;1.30;;;29.30;29.20;;;;;;5096676;28;20032;-81
2021/06/01 13:47:17;;;;;;;4.43;1.10;;;29.40;29.60;;;;;;5077285;28;20439;-82
2021/06/01 13:49:46;;;;;;;2.35;1.25;;;29.60;29.30;;;;;;5088496;28;20024;-82
2021/06/01 15:10:18;;;;;;;3.75;1.40;;;29.60;28.60;;;;;;5108495;28;20395;-83
2021/06/01 15:51:46;;;;;;;5.03;1.40;;;30.10;27.60;;;;;;5100623;28;20031;-82
2021/06/01 16:13:45;;;;;;;151.40;9.98;;;29.60;28.20;;;;;;5097647;28;20039;-83
2021/06/01 16:33:00;;;;;;;4.78;1.00;;;29.00;28.70;;;;;;5081415;28;20021;-83
2021/06/01 16:43:50;;;;;;;2.15;1.20;;;28.40;28.90;;;;;;5117453;28;20042;-84
2021/06/01 17:05:37;;;;;;;10.13;2.28;;;27.70;30.00;;;;;;5101861;28;20548;-84
2021/06/01 17:13:23;;;;;;;5.35;1.70;;;27.50;30.80;;;;;;5113680;28;20063;-84
2021/06/01 17:15:56;;;;;;;2.25;1.40;;;27.50;32.20;;;;;;5077558;28;20039;-82
2021/06/01 17:24:27;;;;;;;3.63;1.40;;;27.10;32.90;;;;;;5105817;28;20015;-82
2021/06/01 17:34:58;;;;;;;3.67;1.38;;;26.80;34.30;;;;;;5116104;28;20051;-82
2021/06/01 17:37:25;;;;;;;3.10;1.38;;;26.80;34.00;;;;;;5088542;28;20101;-82
2021/06/01 17:39:51;;;;;;;1.63;1.17;;;26.80;33.50;;;;;;5103915;28;20494;-82
2021/06/01 17:42:20;;;;;;;1.80;1.27;;;26.90;33.20;;;;;;5077931;28;20036;-82
2021/06/01 17:44:50;;;;;;;4.28;1.23;;;26.90;32.60;;;;;;5091521;28;20127;-82
2021/06/01 17:47:24;;;;;;;1.98;1.40;;;26.90;32.60;;;;;;5081291;28;20392;-82
2021/06/01 17:49:51;;;;;;;2.15;1.13;;;26.90;32.70;;;;;;5116139;28;20024;-82
2021/06/01 17:52:28;;;;;;;1.58;1.10;;;26.80;33.00;;;;;;5115946;28;20023;-82
2021/06/01 17:54:55;;;;;;;1.98;1.30;;;26.80;32.40;;;;;;5104616;28;20510;-82
2021/06/01 17:57:22;;;;;;;2.55;1.23;;;26.80;32.10;;;;;;5060648;28;20040;-82
2021/06/01 17:59:48;;;;;;;3.67;1.53;;;26.70;32.20;;;;;;5107170;28;20047;-80
2021/06/01 18:02:17;;;;;;;2.58;1.27;;;26.60;33.30;;;;;;5076032;28;20777;-81
2021/06/01 18:04:52;;;;;;;3.72;1.67;;;26.60;34.10;;;;;;5115947;28;20027;-82
2021/06/01 18:07:29;;;;;;;4.53;1.52;;;26.50;34.70;;;;;;5103511;28;20012;-81
2021/06/01 19:24:55;;;;;;;6.22;1.77;;;24.70;38.10;;;;;;5093983;28;20035;-82
2021/06/01 19:49:54;;;;;;;6.22;1.42;;;24.20;38.40;;;;;;5110408;28;20073;-78
2021/06/01 19:50:10;;;;;;;5.38;1.38;;;24.10;38.70;;;;;;5097440;28;20037;-79
2021/06/01 19:52:42;;;;;;;4.18;1.60;;;24.00;38.90;;;;;;5102264;28;20469;-78
2021/06/01 19:55:08;;;;;;;6.35;1.42;;;23.90;38.70;;;;;;5083991;28;20043;-78
2021/06/01 19:57:34;;;;;;;4.55;1.30;;;23.90;38.90;;;;;;5073421;28;20138;-77
2021/06/01 20:00:00;;;;;;;3.65;1.42;;;23.80;39.00;;;;;;5074962;28;20111;-77
2021/06/01 20:02:28;;;;;;;6.57;1.58;;;23.80;39.20;;;;;;5074239;28;20440;-78
2021/06/01 20:04:59;;;;;;;4.32;1.50;;;23.70;40.10;;;;;;5097051;28;20032;-79
2021/06/01 20:07:27;;;;;;;7.32;1.63;;;23.70;40.10;;;;;;5083985;28;20051;-77
2021/06/01 20:09:54;;;;;;;3.03;1.08;;;23.60;40.10;;;;;;5093302;28;20030;-80
2021/06/01 20:12:20;;;;;;;4.15;1.50;;;23.60;40.60;;;;;;5085020;28;20028;-80
2021/06/01 20:14:46;;;;;;;5.22;1.73;;;23.50;41.00;;;;;;5095257;28;20024;-79
2021/06/01 20:17:22;;;;;;;6.20;1.83;;;23.40;40.80;;;;;;5110798;28;20051;-79
2021/06/01 20:19:53;;;;;;;4.05;1.42;;;23.30;41.30;;;;;;5075123;28;20020;-80
2021/06/01 20:22:21;;;;;;;6.47;1.48;;;23.20;41.50;;;;;;5093412;28;20368;-80